createdAt,value
2022-12-14T00:02:25.798Z,-1.79
2022-12-14T00:07:25.768Z,-1.80
2022-12-14T00:12:27.700Z,-1.76
2022-12-14T00:17:25.696Z,-1.79
2022-12-14T00:22:25.669Z,-1.80
2022-12-14T00:27:25.569Z,-1.84
2022-12-14T00:32:25.547Z,-1.77
2022-12-14T00:37:25.420Z,-1.55
2022-12-14T00:42:25.381Z,-1.43
2022-12-14T00:47:25.460Z,-1.52
2022-12-14T00:52:25.237Z,-1.41
2022-12-14T00:57:25.225Z,-1.40
2022-12-14T01:02:25.207Z,-1.30
2022-12-14T01:07:25.086Z,-1.30
2022-12-14T01:12:26.188Z,-1.31
2022-12-14T01:17:24.989Z,-1.28
2022-12-14T01:22:25.118Z,-1.28
2022-12-14T01:27:24.874Z,-1.15
2022-12-14T01:32:24.803Z,-1.20
2022-12-14T01:37:24.763Z,-1.35
2022-12-14T01:42:24.751Z,-1.23
2022-12-14T01:47:24.738Z,-1.34
2022-12-14T01:52:24.625Z,-1.35
2022-12-14T01:57:24.609Z,-1.49
2022-12-14T02:02:24.633Z,-1.54
2022-12-14T02:07:24.491Z,-1.54
2022-12-14T02:12:24.407Z,-1.58
2022-12-14T02:17:24.422Z,-1.51
2022-12-14T02:22:24.302Z,-1.31
2022-12-14T02:27:26.309Z,-1.27
2022-12-14T02:32:24.256Z,-1.17
2022-12-14T02:37:24.165Z,-1.17
2022-12-14T03:00:48.413Z,-1.72
2022-12-14T03:05:48.292Z,-1.91
2022-12-14T03:10:48.327Z,-2.06
2022-12-14T03:15:48.285Z,-2.15
2022-12-14T03:20:48.379Z,-2.23
2022-12-14T03:25:48.655Z,-2.26
2022-12-14T03:31:03.047Z,-2.27
2022-12-14T03:35:48.955Z,-2.20
2022-12-14T03:40:47.858Z,-2.18
2022-12-14T03:45:47.981Z,-2.26
2022-12-14T03:50:47.784Z,-2.34
2022-12-14T03:55:49.028Z,-2.35
2022-12-14T04:00:47.806Z,-2.35
2022-12-14T04:05:49.281Z,-2.24
2022-12-14T04:10:47.544Z,-2.20
2022-12-14T04:15:47.529Z,-2.16
2022-12-14T04:20:47.510Z,-2.18
2022-12-14T04:25:47.407Z,-2.18
2022-12-14T04:30:47.361Z,-2.13
2022-12-14T04:35:47.271Z,-2.18
2022-12-14T04:40:47.280Z,-2.24
2022-12-14T04:45:47.288Z,-2.24
2022-12-14T04:50:47.092Z,-2.23
2022-12-14T04:55:47.037Z,-2.23
2022-12-14T05:00:47.032Z,-2.26
2022-12-14T05:05:46.945Z,-2.30
2022-12-14T05:10:46.828Z,-2.35
2022-12-14T05:15:46.809Z,-2.23
2022-12-14T05:20:47.865Z,-2.26
2022-12-14T05:25:48.978Z,-2.21
2022-12-14T05:30:48.849Z,-2.21
2022-12-14T05:35:46.819Z,-2.20
2022-12-14T05:40:46.581Z,-2.26
2022-12-14T05:45:46.531Z,-2.21
2022-12-14T05:50:46.478Z,-2.20
2022-12-14T05:55:46.405Z,-2.23
2022-12-14T06:00:46.385Z,-2.27
2022-12-14T06:05:47.420Z,-2.27
2022-12-14T06:10:46.258Z,-2.24
2022-12-14T06:15:47.317Z,-2.26
2022-12-14T06:20:48.256Z,-2.20
2022-12-14T06:25:46.045Z,-2.18
2022-12-14T06:30:46.034Z,-2.20
2022-12-14T06:35:45.958Z,-2.20
2022-12-14T06:40:45.920Z,-2.18
2022-12-14T06:45:45.838Z,-2.18
2022-12-14T06:50:46.008Z,-2.16
2022-12-14T06:55:45.918Z,-2.26
2022-12-14T07:00:45.713Z,-2.09
2022-12-14T07:05:48.942Z,-2.06
2022-12-14T07:10:45.649Z,-2.05
2022-12-14T07:15:45.551Z,-2.03
2022-12-14T07:20:45.578Z,-1.98
2022-12-14T07:25:45.496Z,-2.00
2022-12-14T07:30:45.408Z,-2.08
2022-12-14T07:35:45.325Z,-1.95
2022-12-14T07:40:45.404Z,-1.90
2022-12-14T07:45:45.292Z,-1.85
2022-12-14T07:50:46.346Z,-1.91
2022-12-14T07:55:45.109Z,-1.76
2022-12-14T08:00:45.096Z,-1.69
2022-12-14T08:05:50.441Z,-1.67
2022-12-14T08:10:45.103Z,-1.67
2022-12-14T08:15:45.016Z,-1.56
2022-12-14T08:20:50.035Z,-1.51
2022-12-14T08:25:45.796Z,-1.49
2022-12-14T08:30:44.790Z,-1.43
2022-12-14T08:35:44.799Z,-1.41
2022-12-14T08:40:54.070Z,-1.28
2022-12-14T08:45:44.500Z,-1.17
2022-12-14T08:50:44.464Z,-1.12
2022-12-14T08:55:45.412Z,-1.04
2022-12-14T09:00:44.430Z,-1.01
2022-12-14T09:05:44.286Z,-0.92
2022-12-14T09:10:44.233Z,-0.80
2022-12-14T09:15:44.193Z,-0.67
2022-12-14T09:20:44.162Z,-0.60
2022-12-14T09:25:44.066Z,-0.67
2022-12-14T09:30:44.057Z,-0.62
2022-12-14T09:35:43.964Z,-0.60
2022-12-14T09:40:43.926Z,-0.46
2022-12-14T09:45:43.913Z,-0.31
2022-12-14T09:50:43.817Z,-0.31
2022-12-14T09:55:43.765Z,-0.23
2022-12-14T10:00:48.118Z,-0.14
2022-12-14T10:05:44.696Z,-0.08
2022-12-14T10:10:43.712Z,-0.11
2022-12-14T10:15:43.643Z,-0.04
2022-12-14T10:20:43.534Z,0.07
2022-12-14T10:25:43.461Z,0.21
2022-12-14T10:30:43.414Z,0.28
2022-12-14T10:35:43.331Z,0.04
2022-12-14T10:40:44.298Z,0.26
2022-12-14T10:45:44.256Z,0.46
2022-12-14T10:50:43.264Z,0.68
2022-12-14T10:55:44.143Z,0.84
2022-12-14T11:00:43.042Z,0.87
2022-12-14T11:05:43.067Z,0.98
2022-12-14T11:10:42.985Z,1.00
2022-12-14T11:15:42.911Z,1.12
2022-12-14T11:20:43.010Z,1.09
2022-12-14T11:25:42.796Z,1.18
2022-12-14T11:30:42.896Z,1.32
2022-12-14T11:35:43.771Z,1.32
2022-12-14T11:40:42.708Z,1.42
2022-12-14T11:45:42.578Z,1.47
2022-12-14T11:50:43.547Z,1.59
2022-12-14T11:55:42.471Z,1.70
2022-12-14T12:00:46.744Z,1.72
2022-12-14T12:05:42.366Z,2.06
2022-12-14T12:10:42.385Z,2.09
2022-12-14T12:15:43.383Z,2.09
2022-12-14T12:20:43.256Z,2.20
2022-12-14T12:25:42.144Z,2.21
2022-12-14T12:30:43.157Z,2.20
2022-12-14T12:35:42.037Z,2.02
2022-12-14T12:40:41.976Z,1.90
2022-12-14T12:45:41.917Z,1.68
2022-12-14T12:50:41.888Z,1.63
2022-12-14T12:55:41.826Z,1.54
2022-12-14T13:00:41.810Z,1.50
2022-12-14T13:05:46.806Z,1.37
2022-12-14T13:11:02.477Z,1.18
2022-12-14T13:15:42.653Z,1.22
2022-12-14T13:20:41.656Z,1.18
2022-12-14T13:25:41.620Z,1.12
2022-12-14T13:30:41.443Z,0.98
2022-12-14T13:35:41.431Z,0.87
2022-12-14T13:40:41.335Z,0.76
2022-12-14T13:45:41.266Z,0.68
2022-12-14T13:50:52.977Z,0.68
2022-12-14T13:55:42.132Z,0.68
2022-12-14T14:00:41.184Z,0.65
2022-12-14T14:05:41.055Z,0.50
2022-12-14T14:10:41.047Z,0.46
2022-12-14T14:16:04.030Z,0.41
2022-12-14T14:20:41.945Z,0.36
2022-12-14T14:25:40.932Z,0.36
2022-12-14T14:30:40.818Z,0.29
2022-12-14T14:35:40.739Z,0.17
2022-12-14T14:45:41.779Z,0.03
2022-12-14T14:50:40.567Z,0.03
2022-12-14T14:55:55.982Z,0.03
2022-12-14T15:00:43.589Z,0.00
2022-12-14T15:05:42.623Z,-0.08
2022-12-14T15:10:40.515Z,-0.23
2022-12-14T15:15:42.584Z,-0.40
2022-12-14T15:20:41.665Z,-0.42
2022-12-14T15:25:40.245Z,-0.49
2022-12-14T15:30:40.201Z,-0.61
2022-12-14T15:35:40.141Z,-0.75
2022-12-14T15:40:40.078Z,-0.86
2022-12-14T15:45:40.133Z,-0.97
2022-12-14T15:50:39.963Z,-0.99
2022-12-14T15:55:39.957Z,-1.07
2022-12-14T16:00:39.970Z,-1.01
2022-12-14T16:05:40.755Z,-0.99
2022-12-14T16:10:39.761Z,-1.17
2022-12-14T16:15:39.668Z,-1.38
2022-12-14T16:20:39.620Z,-1.40
2022-12-14T16:25:39.568Z,-1.52
2022-12-14T16:30:39.630Z,-1.58
2022-12-14T16:35:39.448Z,-1.66
2022-12-14T16:40:39.444Z,-1.85
2022-12-14T16:45:39.428Z,-1.92
2022-12-14T16:50:56.299Z,-1.88
2022-12-14T16:55:40.358Z,-2.02
2022-12-14T17:00:39.232Z,-2.06
2022-12-14T17:05:39.217Z,-2.08
2022-12-14T17:10:39.133Z,-2.18
2022-12-14T17:15:39.096Z,-2.35
2022-12-14T17:20:39.024Z,-2.48
2022-12-14T17:25:46.063Z,-2.45
2022-12-14T17:30:39.919Z,-2.55
2022-12-14T17:35:38.936Z,-2.67
2022-12-14T17:40:38.826Z,-2.64
2022-12-14T17:45:38.746Z,-2.78
2022-12-14T17:50:38.692Z,-2.94
2022-12-14T17:55:38.613Z,-2.99
2022-12-14T18:00:38.650Z,-3.03
2022-12-14T18:05:46.600Z,-3.09
2022-12-14T18:10:40.440Z,-3.00
2022-12-14T18:15:38.435Z,-3.02
2022-12-14T18:20:38.337Z,-3.18
2022-12-14T18:25:39.445Z,-3.31
2022-12-14T18:30:43.041Z,-3.31
2022-12-14T18:35:39.228Z,-3.46
2022-12-14T18:40:38.182Z,-3.43
2022-12-14T18:45:38.139Z,-3.54
2022-12-14T18:50:42.579Z,-3.69
2022-12-14T18:55:38.123Z,-3.63
2022-12-14T19:00:37.991Z,-3.62
2022-12-14T19:05:37.862Z,-3.67
2022-12-14T19:10:37.966Z,-3.79
2022-12-14T19:15:38.803Z,-3.90
2022-12-14T19:20:37.798Z,-4.03
2022-12-14T19:25:37.711Z,-4.12
2022-12-14T19:30:37.669Z,-4.21
2022-12-14T19:35:37.648Z,-4.14
2022-12-14T19:40:37.567Z,-4.17
2022-12-14T19:45:37.469Z,-4.20
2022-12-14T19:50:37.431Z,-4.33
2022-12-14T19:55:37.338Z,-4.29
2022-12-14T20:00:37.305Z,-4.22
2022-12-14T20:05:37.261Z,-4.14
2022-12-14T20:10:37.332Z,-4.15
2022-12-14T20:15:37.246Z,-4.35
2022-12-14T20:20:37.100Z,-4.33
2022-12-14T20:25:37.095Z,-4.21
2022-12-14T20:30:37.012Z,-4.25
2022-12-14T20:35:36.915Z,-4.33
2022-12-14T20:40:38.826Z,-4.51
2022-12-14T20:45:36.902Z,-4.51
2022-12-14T20:50:36.745Z,-4.50
2022-12-14T20:55:36.704Z,-4.47
2022-12-14T21:00:36.681Z,-4.56
2022-12-14T21:05:36.593Z,-4.69
2022-12-14T21:10:36.519Z,-4.72
2022-12-14T21:15:36.495Z,-4.77
2022-12-14T21:20:36.466Z,-4.81
2022-12-14T21:25:36.350Z,-4.86
2022-12-14T21:30:36.355Z,-4.86
2022-12-14T21:35:36.256Z,-4.78
2022-12-14T21:40:36.278Z,-4.54
2022-12-14T21:45:36.209Z,-4.53
2022-12-14T21:50:36.102Z,-4.77
2022-12-14T21:55:36.183Z,-5.03
2022-12-14T22:00:36.034Z,-5.08
2022-12-14T22:05:35.998Z,-5.19
2022-12-14T22:10:35.924Z,-5.13
2022-12-14T22:15:35.824Z,-5.11
2022-12-14T22:20:35.782Z,-5.17
2022-12-14T22:25:35.712Z,-5.22
2022-12-14T22:30:35.679Z,-5.26
2022-12-14T22:35:35.634Z,-5.26
2022-12-14T22:40:35.598Z,-5.22
2022-12-14T22:45:35.677Z,-5.25
2022-12-14T22:50:35.488Z,-5.23
2022-12-14T22:55:35.404Z,-5.22
2022-12-14T23:00:35.437Z,-5.22
2022-12-14T23:05:35.331Z,-5.13
2022-12-14T23:10:35.327Z,-4.97
2022-12-14T23:15:35.201Z,-4.57
2022-12-14T23:20:35.161Z,-4.25
2022-12-14T23:25:35.157Z,-4.18
2022-12-14T23:30:35.096Z,-4.21
2022-12-14T23:35:35.005Z,-4.29
2022-12-14T23:40:34.917Z,-4.25
2022-12-14T23:45:34.860Z,-4.18
2022-12-14T23:50:34.965Z,-4.20
2022-12-14T23:55:34.783Z,-4.20
